createdAt,value
2023-01-30T00:00:29.485Z,4.08
2023-01-30T00:01:29.465Z,4.11
2023-01-30T00:02:29.428Z,4.09
2023-01-30T00:03:29.401Z,4.26
2023-01-30T00:04:29.377Z,4.15
2023-01-30T00:05:29.344Z,4.16
2023-01-30T00:06:29.332Z,4.05
2023-01-30T00:07:29.296Z,4.22
2023-01-30T00:08:29.259Z,4.20
2023-01-30T00:09:29.234Z,4.20
2023-01-30T00:10:29.201Z,4.24
2023-01-30T00:11:29.178Z,4.20
2023-01-30T00:12:29.145Z,4.26
2023-01-30T00:13:29.118Z,4.23
2023-01-30T00:14:29.089Z,4.23
2023-01-30T00:15:29.058Z,4.20
2023-01-30T00:16:29.083Z,4.26
2023-01-30T00:17:29.009Z,4.11
2023-01-30T00:18:28.970Z,4.27
2023-01-30T00:19:28.947Z,4.24
2023-01-30T00:20:28.921Z,4.23
2023-01-30T00:21:28.888Z,4.26
2023-01-30T00:22:28.863Z,4.22
2023-01-30T00:23:28.854Z,4.23
2023-01-30T00:24:28.887Z,4.30
2023-01-30T00:25:29.027Z,4.24
2023-01-30T00:26:28.816Z,4.29
2023-01-30T00:27:28.716Z,4.27
2023-01-30T00:28:28.686Z,4.26
2023-01-30T00:29:28.661Z,4.24
2023-01-30T00:30:28.672Z,4.24
2023-01-30T00:31:28.623Z,4.26
2023-01-30T00:32:28.599Z,4.29
2023-01-30T00:33:28.550Z,4.27
2023-01-30T00:34:28.513Z,4.26
2023-01-30T00:35:28.856Z,4.30
2023-01-30T00:36:28.456Z,4.33
2023-01-30T00:37:28.439Z,4.33
2023-01-30T00:38:28.410Z,4.32
2023-01-30T00:39:28.374Z,4.27
2023-01-30T00:40:28.348Z,4.30
2023-01-30T00:41:28.320Z,4.45
2023-01-30T00:42:28.285Z,4.34
2023-01-30T00:43:28.266Z,4.45
2023-01-30T00:44:28.235Z,4.30
2023-01-30T00:45:28.241Z,4.41
2023-01-30T00:46:28.171Z,4.37
2023-01-30T00:47:28.156Z,4.44
2023-01-30T00:48:28.115Z,4.44
2023-01-30T00:49:28.091Z,4.47
2023-01-30T00:50:28.063Z,4.32
2023-01-30T00:51:28.040Z,4.44
2023-01-30T00:52:28.005Z,4.44
2023-01-30T00:53:27.988Z,4.41
2023-01-30T00:54:27.948Z,4.41
2023-01-30T00:55:27.925Z,4.26
2023-01-30T00:56:27.890Z,4.41
2023-01-30T00:57:27.865Z,4.37
2023-01-30T00:58:27.835Z,4.41
2023-01-30T00:59:27.817Z,4.41
2023-01-30T01:00:27.780Z,4.44
2023-01-30T01:01:27.755Z,4.37
2023-01-30T01:02:27.719Z,4.48
2023-01-30T01:03:27.705Z,4.50
2023-01-30T01:04:27.670Z,4.42
2023-01-30T01:05:27.636Z,4.44
2023-01-30T01:06:27.616Z,4.44
2023-01-30T01:07:27.581Z,4.36
2023-01-30T01:08:27.556Z,4.50
2023-01-30T01:09:27.527Z,4.47
2023-01-30T01:10:27.495Z,4.42
2023-01-30T01:11:27.469Z,4.42
2023-01-30T01:12:27.439Z,4.41
2023-01-30T01:13:27.431Z,4.52
2023-01-30T01:14:27.381Z,4.41
2023-01-30T01:15:27.352Z,4.44
2023-01-30T01:16:27.392Z,4.47
2023-01-30T01:17:27.299Z,4.44
2023-01-30T01:18:27.263Z,4.44
2023-01-30T01:19:27.238Z,4.51
2023-01-30T01:20:27.206Z,4.41
2023-01-30T01:21:27.198Z,4.45
2023-01-30T01:22:27.159Z,4.47
2023-01-30T01:23:27.127Z,4.36
2023-01-30T01:24:27.094Z,4.50
2023-01-30T01:25:27.075Z,4.47
2023-01-30T01:26:27.134Z,4.47
2023-01-30T01:27:27.031Z,4.44
2023-01-30T01:28:26.982Z,4.50
2023-01-30T01:29:26.961Z,4.47
2023-01-30T01:30:26.943Z,4.51
2023-01-30T01:31:27.082Z,4.45
2023-01-30T01:32:26.868Z,4.48
2023-01-30T01:33:26.848Z,4.50
2023-01-30T01:34:26.816Z,4.54
2023-01-30T01:35:26.786Z,4.45
2023-01-30T01:36:52.146Z,4.55
2023-01-30T01:37:26.748Z,4.63
2023-01-30T01:38:26.700Z,4.59
2023-01-30T01:39:26.684Z,4.51
2023-01-30T01:40:26.642Z,4.58
2023-01-30T01:41:26.625Z,4.51
2023-01-30T01:42:26.591Z,4.59
2023-01-30T01:43:26.562Z,4.58
2023-01-30T01:44:26.522Z,4.58
2023-01-30T01:45:26.510Z,4.55
2023-01-30T01:46:26.471Z,4.54
2023-01-30T01:47:26.444Z,4.55
2023-01-30T01:48:26.422Z,4.63
2023-01-30T01:49:26.405Z,4.55
2023-01-30T01:50:26.363Z,4.58
2023-01-30T01:51:26.334Z,4.72
2023-01-30T01:52:26.299Z,4.60
2023-01-30T01:53:26.280Z,4.62
2023-01-30T01:54:26.243Z,4.55
2023-01-30T01:55:26.217Z,4.60
2023-01-30T01:56:26.183Z,4.69
2023-01-30T01:57:26.161Z,4.70
2023-01-30T01:58:26.127Z,4.63
2023-01-30T01:59:26.102Z,4.63
2023-01-30T02:00:26.072Z,4.65
2023-01-30T02:01:26.096Z,4.69
2023-01-30T02:02:26.042Z,4.66
2023-01-30T02:03:25.991Z,4.66
2023-01-30T02:04:25.962Z,4.63
2023-01-30T02:05:25.941Z,4.69
2023-01-30T02:06:25.906Z,4.75
2023-01-30T02:07:25.885Z,4.63
2023-01-30T02:08:25.847Z,4.75
2023-01-30T02:09:25.817Z,4.77
2023-01-30T02:10:25.785Z,4.73
2023-01-30T02:11:25.760Z,4.70
2023-01-30T02:12:25.729Z,4.70
2023-01-30T02:13:25.723Z,4.69
2023-01-30T02:14:25.678Z,4.73
2023-01-30T02:15:25.646Z,4.78
2023-01-30T02:16:25.616Z,4.84
2023-01-30T02:17:25.620Z,4.80
2023-01-30T02:18:25.564Z,4.85
2023-01-30T02:19:25.535Z,4.78
2023-01-30T02:20:25.505Z,4.86
2023-01-30T02:21:25.478Z,4.80
2023-01-30T02:22:25.455Z,4.82
2023-01-30T02:23:25.428Z,4.85
2023-01-30T02:24:25.389Z,4.88
2023-01-30T02:25:25.371Z,4.92
2023-01-30T02:26:25.365Z,4.92
2023-01-30T02:27:25.312Z,4.99
2023-01-30T02:28:25.282Z,4.94
2023-01-30T02:29:25.254Z,4.99
2023-01-30T02:30:25.363Z,4.91
2023-01-30T02:31:25.304Z,4.97
2023-01-30T02:32:25.164Z,4.97
2023-01-30T02:33:25.141Z,4.94
2023-01-30T02:34:25.108Z,4.94
2023-01-30T02:35:25.087Z,4.99
2023-01-30T02:36:25.051Z,4.96
2023-01-30T02:37:25.037Z,4.92
2023-01-30T02:38:24.994Z,4.97
2023-01-30T02:39:24.979Z,5.00
2023-01-30T02:40:24.942Z,5.00
2023-01-30T02:41:24.918Z,5.06
2023-01-30T02:42:24.887Z,5.02
2023-01-30T02:43:24.859Z,5.04
2023-01-30T02:44:24.826Z,5.03
2023-01-30T02:45:24.801Z,5.02
2023-01-30T02:46:24.813Z,5.06
2023-01-30T02:47:24.744Z,5.06
2023-01-30T02:48:24.725Z,5.09
2023-01-30T02:49:24.692Z,5.07
2023-01-30T02:50:24.661Z,5.09
2023-01-30T02:51:24.630Z,5.10
2023-01-30T02:52:24.606Z,5.13
2023-01-30T02:53:24.576Z,5.18
2023-01-30T02:54:24.548Z,5.12
2023-01-30T02:55:24.522Z,5.18
2023-01-30T02:56:24.505Z,5.18
2023-01-30T02:57:24.462Z,5.18
2023-01-30T02:58:24.433Z,5.20
2023-01-30T02:59:24.415Z,5.18
2023-01-30T03:00:24.388Z,5.30
2023-01-30T03:01:24.397Z,5.25
2023-01-30T03:02:24.366Z,5.21
2023-01-30T03:03:24.295Z,5.25
2023-01-30T03:04:24.266Z,5.28
2023-01-30T03:05:24.247Z,5.27
2023-01-30T03:06:24.208Z,5.35
2023-01-30T03:07:24.190Z,5.39
2023-01-30T03:08:24.164Z,5.35
2023-01-30T03:09:24.135Z,5.43
2023-01-30T03:10:24.115Z,5.39
2023-01-30T03:11:24.075Z,5.45
2023-01-30T03:12:24.041Z,5.45
2023-01-30T03:13:24.024Z,5.49
2023-01-30T03:14:23.983Z,5.45
2023-01-30T03:15:23.959Z,5.49
2023-01-30T03:16:23.965Z,5.48
2023-01-30T03:17:23.901Z,5.53
2023-01-30T03:18:23.877Z,5.51
2023-01-30T03:19:23.852Z,5.58
2023-01-30T03:20:23.844Z,5.58
2023-01-30T03:21:23.793Z,5.61
2023-01-30T03:22:23.772Z,5.63
2023-01-30T03:23:23.735Z,5.64
2023-01-30T03:24:23.708Z,5.61
2023-01-30T03:25:23.703Z,5.60
2023-01-30T03:26:23.746Z,5.65
2023-01-30T03:27:23.628Z,5.58
2023-01-30T03:28:23.594Z,5.58
2023-01-30T03:29:23.574Z,5.58
2023-01-30T03:30:23.538Z,5.72
2023-01-30T03:31:23.632Z,5.63
2023-01-30T03:32:23.486Z,5.64
2023-01-30T03:33:23.462Z,5.72
2023-01-30T03:34:23.433Z,5.71
2023-01-30T03:35:23.401Z,5.71
2023-01-30T03:36:23.377Z,5.68
2023-01-30T03:37:23.352Z,5.68
2023-01-30T03:38:23.312Z,5.71
2023-01-30T03:39:23.289Z,5.72
2023-01-30T03:40:23.258Z,5.78
2023-01-30T03:41:23.233Z,5.72
2023-01-30T03:42:23.205Z,5.81
2023-01-30T03:43:23.195Z,5.78
2023-01-30T03:44:23.168Z,5.74
2023-01-30T03:45:23.123Z,5.81
2023-01-30T03:46:23.126Z,5.78
2023-01-30T03:47:23.072Z,5.83
2023-01-30T03:48:23.043Z,5.76
2023-01-30T03:49:23.010Z,5.75
2023-01-30T03:50:22.981Z,5.71
2023-01-30T03:51:22.956Z,5.78
2023-01-30T03:52:22.924Z,5.79
2023-01-30T03:53:22.905Z,5.81
2023-01-30T03:54:22.879Z,5.75
2023-01-30T03:55:22.841Z,5.83
2023-01-30T03:56:22.860Z,5.83
2023-01-30T03:57:22.786Z,5.78
2023-01-30T03:58:22.761Z,5.75
2023-01-30T03:59:22.737Z,5.86
2023-01-30T04:00:22.730Z,5.81
2023-01-30T04:01:22.755Z,5.72
2023-01-30T04:02:22.701Z,5.81
2023-01-30T04:03:22.622Z,5.85
2023-01-30T04:04:22.594Z,5.82
2023-01-30T04:05:22.568Z,5.83
2023-01-30T04:06:22.556Z,5.83
2023-01-30T04:07:22.506Z,5.79
2023-01-30T04:08:22.484Z,5.83
2023-01-30T04:09:22.458Z,5.79
2023-01-30T04:10:22.432Z,5.74
2023-01-30T04:11:22.404Z,5.82
2023-01-30T04:12:22.381Z,5.90
2023-01-30T04:13:22.352Z,5.82
2023-01-30T04:14:22.318Z,5.93
2023-01-30T04:15:22.302Z,5.90
2023-01-30T04:16:22.341Z,5.89
2023-01-30T04:17:22.238Z,5.90
2023-01-30T04:18:22.221Z,5.90
2023-01-30T04:19:22.178Z,5.90
2023-01-30T04:20:22.156Z,5.82
2023-01-30T04:21:22.129Z,5.82
2023-01-30T04:22:22.097Z,5.86
2023-01-30T04:23:22.068Z,5.90
2023-01-30T04:24:22.040Z,5.90
2023-01-30T04:25:22.009Z,5.90
2023-01-30T04:26:22.037Z,5.93
2023-01-30T04:27:21.963Z,5.93
2023-01-30T04:28:21.933Z,5.96
2023-01-30T04:29:21.904Z,5.96
2023-01-30T04:30:21.904Z,5.99
2023-01-30T04:31:21.914Z,5.93
2023-01-30T04:32:21.953Z,5.96
2023-01-30T04:33:21.789Z,5.86
2023-01-30T04:34:21.761Z,5.91
2023-01-30T04:35:21.742Z,5.93
2023-01-30T04:36:21.717Z,5.93
2023-01-30T04:37:21.679Z,5.93
2023-01-30T04:38:21.654Z,5.94
2023-01-30T04:39:22.230Z,5.91
2023-01-30T04:40:21.594Z,5.93
2023-01-30T04:41:21.572Z,5.90
2023-01-30T04:42:21.541Z,5.93
2023-01-30T04:43:21.509Z,6.00
2023-01-30T04:44:21.490Z,5.99
2023-01-30T04:45:21.455Z,5.94
2023-01-30T04:46:21.435Z,5.99
2023-01-30T04:47:21.436Z,5.96
2023-01-30T04:48:21.415Z,5.99
2023-01-30T04:49:21.346Z,6.01
2023-01-30T04:50:21.323Z,6.01
2023-01-30T04:51:21.320Z,5.93
2023-01-30T04:52:21.262Z,5.99
2023-01-30T04:53:21.243Z,6.00
2023-01-30T04:54:21.211Z,5.94
2023-01-30T04:55:21.183Z,6.04
2023-01-30T04:56:21.165Z,6.03
2023-01-30T04:57:21.126Z,6.04
2023-01-30T04:58:21.101Z,6.04
2023-01-30T04:59:21.074Z,6.08
2023-01-30T05:00:21.050Z,5.96
2023-01-30T05:01:21.021Z,6.01
2023-01-30T05:02:23.030Z,6.03
2023-01-30T05:03:20.957Z,6.04
2023-01-30T05:04:20.960Z,6.03
2023-01-30T05:05:20.903Z,6.03
2023-01-30T05:06:20.893Z,6.06
2023-01-30T05:07:20.857Z,6.01
2023-01-30T05:08:20.827Z,5.99
2023-01-30T05:09:20.801Z,5.99
2023-01-30T05:10:20.771Z,6.08
2023-01-30T05:11:20.761Z,5.99
2023-01-30T05:12:20.715Z,6.03
2023-01-30T05:13:20.681Z,6.08
2023-01-30T05:14:20.657Z,6.03
2023-01-30T05:15:20.956Z,6.08
2023-01-30T05:16:20.607Z,6.00
2023-01-30T05:17:20.630Z,6.00
2023-01-30T05:18:20.543Z,6.03
2023-01-30T05:19:20.514Z,6.06
2023-01-30T05:20:20.523Z,5.99
2023-01-30T05:21:20.467Z,6.03
2023-01-30T05:22:20.444Z,5.99
2023-01-30T05:23:20.404Z,6.03
2023-01-30T05:24:20.384Z,6.01
2023-01-30T05:25:20.587Z,6.01
2023-01-30T05:26:20.384Z,6.04
2023-01-30T05:27:20.298Z,6.01
2023-01-30T05:28:20.270Z,6.06
2023-01-30T05:29:20.245Z,6.08
2023-01-30T05:30:20.247Z,6.03
2023-01-30T05:31:20.249Z,6.06
2023-01-30T05:32:20.166Z,6.12
2023-01-30T05:33:20.131Z,6.12
2023-01-30T05:34:20.111Z,6.03
2023-01-30T05:35:20.406Z,5.99
2023-01-30T05:36:20.072Z,6.15
2023-01-30T05:37:20.022Z,6.12
2023-01-30T05:38:19.997Z,6.15
2023-01-30T05:39:19.962Z,6.09
2023-01-30T05:40:19.953Z,6.00
2023-01-30T05:41:19.907Z,6.04
2023-01-30T05:42:19.888Z,6.09
2023-01-30T05:43:19.857Z,6.08
2023-01-30T05:44:19.830Z,6.12
2023-01-30T05:45:20.183Z,6.11
2023-01-30T05:46:19.887Z,6.11
2023-01-30T05:47:19.754Z,6.04
2023-01-30T05:48:19.719Z,6.14
2023-01-30T05:49:19.687Z,6.12
2023-01-30T05:50:19.679Z,6.11
2023-01-30T05:51:19.634Z,6.09
2023-01-30T05:52:19.637Z,6.11
2023-01-30T05:53:19.582Z,6.12
2023-01-30T05:54:19.560Z,6.21
2023-01-30T05:55:19.910Z,6.12
2023-01-30T05:56:19.510Z,6.19
2023-01-30T05:57:19.483Z,6.17
2023-01-30T05:58:19.450Z,6.17
2023-01-30T05:59:19.417Z,6.19
2023-01-30T06:00:19.389Z,6.14
2023-01-30T06:01:19.363Z,6.27
2023-01-30T06:02:19.347Z,6.09
2023-01-30T06:03:19.311Z,6.17
2023-01-30T06:04:19.293Z,6.14
2023-01-30T06:05:19.636Z,6.31
2023-01-30T06:06:19.220Z,6.21
2023-01-30T06:07:19.193Z,6.14
2023-01-30T06:08:19.194Z,6.22
2023-01-30T06:09:19.140Z,6.28
2023-01-30T06:10:19.119Z,6.30
2023-01-30T06:11:19.089Z,6.31
2023-01-30T06:12:19.060Z,6.33
2023-01-30T06:13:19.035Z,6.31
2023-01-30T06:14:19.007Z,6.34
2023-01-30T06:15:19.323Z,6.33
2023-01-30T06:16:19.122Z,6.33
2023-01-30T06:17:18.923Z,6.30
2023-01-30T06:18:18.901Z,6.28
2023-01-30T06:19:18.869Z,6.36
2023-01-30T06:20:18.838Z,6.41
2023-01-30T06:21:18.813Z,6.36
2023-01-30T06:22:18.786Z,6.40
2023-01-30T06:23:18.768Z,6.44
2023-01-30T06:24:18.758Z,6.37
2023-01-30T06:25:19.237Z,6.41
2023-01-30T06:26:18.720Z,6.40
2023-01-30T06:27:18.644Z,6.46
2023-01-30T06:28:18.621Z,6.43
2023-01-30T06:29:18.589Z,6.61
2023-01-30T06:30:18.635Z,6.55
2023-01-30T06:31:18.593Z,6.46
2023-01-30T06:32:18.510Z,6.55
2023-01-30T06:33:18.483Z,6.59
2023-01-30T06:34:18.463Z,6.54
2023-01-30T06:35:18.881Z,6.31
2023-01-30T06:36:18.405Z,6.28
2023-01-30T06:37:18.415Z,6.14
2023-01-30T06:38:18.348Z,6.00
2023-01-30T06:39:18.322Z,6.01
2023-01-30T06:40:18.319Z,5.97
2023-01-30T06:41:18.270Z,5.93
2023-01-30T06:42:18.242Z,5.83
2023-01-30T06:43:18.216Z,5.86
2023-01-30T06:44:18.184Z,5.82
2023-01-30T06:45:18.493Z,5.79
2023-01-30T06:46:18.222Z,5.78
2023-01-30T06:47:18.106Z,5.82
2023-01-30T06:48:18.083Z,5.85
2023-01-30T06:49:18.049Z,5.75
2023-01-30T06:50:18.019Z,5.78
2023-01-30T06:51:17.987Z,5.75
2023-01-30T06:52:17.967Z,5.86
2023-01-30T06:53:17.933Z,5.86
2023-01-30T06:54:17.913Z,5.79
2023-01-30T06:55:18.300Z,5.71
2023-01-30T06:56:17.874Z,5.71
2023-01-30T06:57:17.838Z,5.71
2023-01-30T06:58:17.800Z,5.64
2023-01-30T06:59:17.776Z,5.61
2023-01-30T07:00:17.747Z,5.75
2023-01-30T07:01:17.714Z,5.61
2023-01-30T07:02:17.709Z,5.61
2023-01-30T07:03:17.656Z,5.68
2023-01-30T07:04:17.681Z,5.68
2023-01-30T07:05:17.870Z,5.67
2023-01-30T07:06:17.587Z,5.67
2023-01-30T07:07:17.545Z,5.74
2023-01-30T07:08:17.525Z,5.78
2023-01-30T07:09:17.496Z,5.81
2023-01-30T07:10:17.468Z,5.89
2023-01-30T07:11:17.436Z,5.79
2023-01-30T07:12:17.443Z,5.79
2023-01-30T07:13:17.380Z,5.94
2023-01-30T07:14:17.366Z,5.89
2023-01-30T07:15:17.801Z,5.96
2023-01-30T07:16:17.324Z,5.97
2023-01-30T07:17:17.271Z,6.14
2023-01-30T07:18:17.260Z,6.12
2023-01-30T07:19:17.215Z,6.03
2023-01-30T07:20:17.190Z,6.12
2023-01-30T07:21:17.158Z,6.18
2023-01-30T07:22:17.131Z,6.14
2023-01-30T07:23:17.102Z,6.18
2023-01-30T07:24:17.077Z,6.21
2023-01-30T07:25:17.264Z,6.17
2023-01-30T07:26:17.077Z,6.21
2023-01-30T07:27:16.997Z,6.17
2023-01-30T07:28:16.989Z,6.14
2023-01-30T07:29:16.938Z,6.25
2023-01-30T07:30:16.913Z,6.15
2023-01-30T07:31:16.941Z,6.15
2023-01-30T07:32:16.860Z,6.18
2023-01-30T07:33:16.832Z,6.18
2023-01-30T07:34:16.799Z,6.15
2023-01-30T07:35:16.772Z,6.19
2023-01-30T07:36:16.770Z,6.14
2023-01-30T07:37:16.714Z,6.19
2023-01-30T07:38:16.691Z,6.18
2023-01-30T07:39:16.663Z,6.19
2023-01-30T07:40:16.658Z,6.18
2023-01-30T07:41:16.607Z,6.17
2023-01-30T07:42:16.586Z,6.19
2023-01-30T07:43:16.545Z,6.17
2023-01-30T07:44:16.558Z,6.17
2023-01-30T07:45:16.718Z,6.19
2023-01-30T07:46:16.473Z,6.18
2023-01-30T07:47:16.469Z,6.22
2023-01-30T07:48:16.421Z,6.17
2023-01-30T07:49:16.386Z,6.21
2023-01-30T07:50:16.929Z,6.21
2023-01-30T07:51:16.333Z,6.30
2023-01-30T07:52:16.309Z,6.33
2023-01-30T07:53:16.278Z,6.37
2023-01-30T07:54:16.255Z,6.30
2023-01-30T07:55:16.614Z,6.36
2023-01-30T07:56:16.191Z,6.40
2023-01-30T07:57:16.172Z,6.38
2023-01-30T07:58:16.143Z,6.41
2023-01-30T07:59:16.117Z,6.48
2023-01-30T08:00:16.531Z,6.44
2023-01-30T08:01:16.133Z,6.49
2023-01-30T08:02:16.036Z,6.46
2023-01-30T08:03:16.000Z,6.51
2023-01-30T08:04:16.070Z,6.58
2023-01-30T08:05:15.944Z,6.54
2023-01-30T08:06:15.921Z,6.54
2023-01-30T08:07:15.894Z,6.48
2023-01-30T08:08:15.880Z,6.51
2023-01-30T08:09:15.836Z,6.49
2023-01-30T08:10:16.066Z,6.51
2023-01-30T08:11:15.783Z,6.48
2023-01-30T08:12:15.749Z,6.49
2023-01-30T08:13:15.736Z,6.43
2023-01-30T08:14:15.701Z,6.41
2023-01-30T08:15:15.678Z,6.51
2023-01-30T08:16:15.714Z,6.51
2023-01-30T08:17:15.640Z,6.46
2023-01-30T08:18:15.593Z,6.59
2023-01-30T08:19:15.566Z,6.55
2023-01-30T08:20:15.585Z,6.61
2023-01-30T08:21:15.506Z,6.59
2023-01-30T08:22:15.488Z,6.58
2023-01-30T08:23:15.452Z,6.55
2023-01-30T08:24:15.428Z,6.58
2023-01-30T08:25:15.404Z,6.62
2023-01-30T08:26:15.493Z,6.61
2023-01-30T08:27:15.340Z,6.59
2023-01-30T08:28:15.310Z,6.54
2023-01-30T08:29:15.289Z,6.59
2023-01-30T08:30:15.269Z,6.54
2023-01-30T08:31:15.396Z,6.59
2023-01-30T08:32:15.983Z,6.56
2023-01-30T08:33:15.182Z,6.58
2023-01-30T08:34:15.150Z,6.64
2023-01-30T08:35:15.129Z,6.61
2023-01-30T08:36:15.093Z,6.62
2023-01-30T08:37:15.073Z,6.61
2023-01-30T08:38:15.041Z,6.67
2023-01-30T08:39:15.018Z,6.61
2023-01-30T08:40:14.990Z,6.62
2023-01-30T08:41:14.959Z,6.66
2023-01-30T08:42:14.932Z,6.62
2023-01-30T08:43:14.904Z,6.64
2023-01-30T08:44:14.882Z,6.62
2023-01-30T08:45:14.852Z,6.64
2023-01-30T08:46:14.858Z,6.73
2023-01-30T08:47:14.797Z,6.71
2023-01-30T08:48:14.871Z,6.77
2023-01-30T08:49:14.740Z,6.71
2023-01-30T08:50:14.732Z,6.77
2023-01-30T08:51:14.686Z,6.80
2023-01-30T08:52:14.654Z,6.76
2023-01-30T08:53:14.634Z,6.80
2023-01-30T08:54:14.604Z,6.77
2023-01-30T08:55:14.577Z,6.81
2023-01-30T08:56:14.563Z,6.80
2023-01-30T08:57:14.520Z,6.85
2023-01-30T08:58:14.499Z,6.73
2023-01-30T08:59:14.478Z,6.74
2023-01-30T09:00:14.436Z,6.80
2023-01-30T09:01:14.446Z,6.74
2023-01-30T09:02:14.424Z,6.79
2023-01-30T09:03:14.362Z,6.76
2023-01-30T09:04:14.358Z,6.74
2023-01-30T09:05:14.304Z,6.77
2023-01-30T09:06:14.270Z,6.71
2023-01-30T09:07:14.250Z,6.79
2023-01-30T09:08:14.216Z,6.80
2023-01-30T09:09:14.195Z,6.81
2023-01-30T09:10:14.161Z,6.87
2023-01-30T09:11:14.137Z,6.81
2023-01-30T09:12:14.106Z,6.87
2023-01-30T09:13:14.079Z,6.85
2023-01-30T09:14:14.050Z,6.89
2023-01-30T09:15:14.029Z,6.81
2023-01-30T09:16:14.056Z,6.81
2023-01-30T09:17:13.970Z,6.88
2023-01-30T09:18:13.942Z,6.81
2023-01-30T09:19:13.919Z,6.84
2023-01-30T09:20:13.923Z,6.84
2023-01-30T09:21:13.877Z,6.80
2023-01-30T09:22:13.830Z,6.84
2023-01-30T09:23:13.811Z,6.80
2023-01-30T09:24:13.789Z,6.95
2023-01-30T09:25:13.758Z,6.92
2023-01-30T09:26:13.763Z,6.88
2023-01-30T09:27:13.703Z,6.94
2023-01-30T09:28:13.680Z,6.94
2023-01-30T09:29:13.644Z,6.94
2023-01-30T09:30:13.621Z,6.94
2023-01-30T09:31:13.715Z,6.99
2023-01-30T09:32:13.576Z,6.95
2023-01-30T09:33:13.539Z,6.95
2023-01-30T09:34:13.503Z,6.94
2023-01-30T09:35:13.484Z,6.95
2023-01-30T09:36:13.581Z,6.97
2023-01-30T09:37:13.440Z,6.91
2023-01-30T09:38:13.399Z,6.99
2023-01-30T09:39:13.380Z,6.94
2023-01-30T09:40:13.341Z,7.03
2023-01-30T09:41:13.321Z,6.89
2023-01-30T09:42:13.285Z,6.94
2023-01-30T09:43:13.275Z,6.95
2023-01-30T09:44:13.236Z,6.92
2023-01-30T09:45:13.222Z,6.94
2023-01-30T09:46:13.222Z,6.88
2023-01-30T09:47:13.201Z,6.92
2023-01-30T09:48:13.125Z,6.88
2023-01-30T09:49:13.100Z,6.87
2023-01-30T09:50:13.066Z,7.02
2023-01-30T09:51:13.047Z,6.95
2023-01-30T09:52:13.043Z,7.06
2023-01-30T09:53:12.991Z,7.02
2023-01-30T09:54:12.982Z,7.09
2023-01-30T09:55:12.944Z,7.12
2023-01-30T09:56:12.908Z,7.07
2023-01-30T09:57:21.092Z,7.10
2023-01-30T09:58:12.894Z,7.15
2023-01-30T09:59:12.822Z,7.16
2023-01-30T10:00:12.802Z,7.16
2023-01-30T10:01:12.782Z,7.21
2023-01-30T10:02:12.737Z,7.27
2023-01-30T10:03:12.752Z,7.24
2023-01-30T10:04:12.728Z,7.28
2023-01-30T10:05:12.728Z,7.32
2023-01-30T10:06:12.640Z,7.39
2023-01-30T10:07:12.603Z,7.25
2023-01-30T10:08:12.623Z,7.21
2023-01-30T10:09:12.557Z,7.31
2023-01-30T10:10:12.534Z,7.32
2023-01-30T10:11:12.499Z,7.31
2023-01-30T10:12:12.483Z,7.31
2023-01-30T10:13:12.453Z,7.28
2023-01-30T10:14:12.418Z,7.17
2023-01-30T10:15:12.394Z,7.21
2023-01-30T10:16:12.426Z,7.24
2023-01-30T10:17:12.345Z,7.23
2023-01-30T10:18:12.311Z,7.17
2023-01-30T10:19:13.381Z,7.20
2023-01-30T10:20:12.264Z,7.24
2023-01-30T10:21:12.227Z,7.27
2023-01-30T10:22:12.197Z,7.13
2023-01-30T10:23:12.175Z,7.02
2023-01-30T10:24:12.160Z,6.91
2023-01-30T10:25:12.121Z,6.98
2023-01-30T10:26:12.170Z,6.99
2023-01-30T10:27:12.071Z,6.81
2023-01-30T10:28:12.036Z,6.89
2023-01-30T10:29:12.012Z,6.81
2023-01-30T10:30:11.979Z,6.85
2023-01-30T10:31:12.028Z,6.80
2023-01-30T10:32:11.931Z,6.81
2023-01-30T10:33:11.899Z,6.94
2023-01-30T10:34:11.870Z,6.94
2023-01-30T10:35:11.848Z,6.91
2023-01-30T10:36:11.830Z,6.97
2023-01-30T10:37:11.789Z,7.02
2023-01-30T10:38:11.765Z,7.07
2023-01-30T10:39:11.736Z,7.13
2023-01-30T10:40:11.725Z,7.17
2023-01-30T10:41:11.695Z,7.21
2023-01-30T10:42:11.932Z,7.21
2023-01-30T10:43:11.646Z,7.21
2023-01-30T10:44:11.604Z,7.17
2023-01-30T10:45:11.572Z,7.25
2023-01-30T10:46:11.585Z,7.25
2023-01-30T10:47:11.524Z,7.31
2023-01-30T10:48:11.491Z,7.27
2023-01-30T10:49:11.465Z,7.35
2023-01-30T10:50:11.436Z,7.37
2023-01-30T10:51:11.432Z,7.32
2023-01-30T10:52:11.382Z,7.30
2023-01-30T10:53:11.359Z,7.39
2023-01-30T10:54:11.330Z,7.34
2023-01-30T10:55:11.305Z,7.37
2023-01-30T10:56:11.295Z,7.35
2023-01-30T10:57:11.247Z,7.30
2023-01-30T10:58:11.223Z,7.23
2023-01-30T10:59:11.199Z,7.27
2023-01-30T11:00:11.160Z,7.25
2023-01-30T11:01:11.147Z,7.28
2023-01-30T11:02:11.110Z,7.24
2023-01-30T11:03:11.134Z,7.27
2023-01-30T11:04:11.055Z,7.28
2023-01-30T11:05:11.031Z,7.25
2023-01-30T11:06:11.024Z,7.24
2023-01-30T11:07:10.979Z,7.27
2023-01-30T11:08:10.951Z,7.23
2023-01-30T11:09:10.925Z,7.20
2023-01-30T11:10:10.900Z,7.21
2023-01-30T11:11:10.875Z,7.32
2023-01-30T11:12:10.863Z,7.39
2023-01-30T11:13:10.808Z,7.40
2023-01-30T11:14:10.794Z,7.34
2023-01-30T11:15:10.768Z,7.40
2023-01-30T11:16:10.859Z,7.35
2023-01-30T11:17:10.706Z,7.32
2023-01-30T11:19:20.760Z,7.40
2023-01-30T11:20:13.372Z,7.42
2023-01-30T11:21:10.602Z,7.40
2023-01-30T11:22:10.572Z,7.45
2023-01-30T11:23:10.539Z,7.40
2023-01-30T11:24:10.511Z,7.45
2023-01-30T11:25:10.492Z,7.46
2023-01-30T11:26:11.968Z,7.46
2023-01-30T11:27:10.482Z,7.49
2023-01-30T11:28:10.425Z,7.39
2023-01-30T11:29:10.391Z,7.48
2023-01-30T11:30:10.356Z,7.43
2023-01-30T11:31:10.364Z,7.52
2023-01-30T11:32:10.344Z,7.48
2023-01-30T11:33:10.283Z,7.45
2023-01-30T11:34:10.240Z,7.45
2023-01-30T11:35:10.221Z,7.42
2023-01-30T11:36:10.188Z,7.57
2023-01-30T11:37:10.165Z,7.46
2023-01-30T11:38:10.133Z,7.52
2023-01-30T11:39:10.113Z,7.50
2023-01-30T11:40:10.099Z,7.64
2023-01-30T11:41:10.062Z,7.72
2023-01-30T11:42:10.035Z,7.63
2023-01-30T11:43:10.007Z,7.67
2023-01-30T11:44:09.992Z,7.63
2023-01-30T11:45:17.759Z,7.63
2023-01-30T11:46:10.019Z,7.68
2023-01-30T11:47:09.900Z,7.64
2023-01-30T11:48:12.488Z,7.69
2023-01-30T11:49:38.889Z,7.69
2023-01-30T11:50:13.238Z,7.64
2023-01-30T11:51:09.792Z,7.72
2023-01-30T11:52:09.762Z,7.68
2023-01-30T11:53:09.735Z,7.63
2023-01-30T11:54:09.704Z,7.64
2023-01-30T11:55:09.680Z,7.67
2023-01-30T11:56:11.119Z,7.63
2023-01-30T11:57:09.621Z,7.68
2023-01-30T11:58:09.635Z,7.64
2023-01-30T11:59:09.572Z,7.61
2023-01-30T12:00:09.560Z,7.69
2023-01-30T12:01:09.531Z,7.71
2023-01-30T12:02:09.571Z,7.69
2023-01-30T12:03:09.487Z,7.71
2023-01-30T12:04:09.426Z,7.75
2023-01-30T12:05:09.405Z,7.80
2023-01-30T12:06:09.382Z,7.79
2023-01-30T12:07:09.360Z,7.83
2023-01-30T12:08:09.327Z,7.75
2023-01-30T12:09:09.298Z,7.79
2023-01-30T12:10:09.267Z,7.83
2023-01-30T12:11:09.245Z,7.80
2023-01-30T12:12:09.217Z,7.92
2023-01-30T12:13:09.194Z,7.87
2023-01-30T12:14:09.169Z,7.95
2023-01-30T12:15:09.136Z,7.93
2023-01-30T12:16:09.212Z,7.89
2023-01-30T12:17:09.080Z,7.89
2023-01-30T12:18:09.049Z,7.90
2023-01-30T12:19:09.032Z,7.95
2023-01-30T12:20:09.000Z,7.95
2023-01-30T12:21:08.980Z,7.92
2023-01-30T12:22:08.945Z,7.89
2023-01-30T12:23:08.926Z,7.87
2023-01-30T12:24:08.893Z,7.97
2023-01-30T12:25:08.863Z,7.89
2023-01-30T12:26:08.843Z,7.92
2023-01-30T12:27:08.808Z,7.92
2023-01-30T12:28:08.781Z,7.93
2023-01-30T12:29:08.761Z,8.15
2023-01-30T12:30:08.739Z,8.11
2023-01-30T12:31:08.709Z,8.20
2023-01-30T12:32:08.699Z,8.15
2023-01-30T12:33:08.661Z,8.08
2023-01-30T12:34:08.628Z,8.15
2023-01-30T12:35:08.595Z,8.00
2023-01-30T12:36:08.572Z,7.87
2023-01-30T12:37:08.541Z,7.82
2023-01-30T12:38:08.521Z,7.77
2023-01-30T12:39:08.486Z,7.69
2023-01-30T12:40:08.463Z,7.71
2023-01-30T12:41:08.434Z,7.64
2023-01-30T12:42:08.409Z,7.64
2023-01-30T12:43:08.383Z,7.69
2023-01-30T12:44:08.351Z,7.64
2023-01-30T12:45:08.321Z,7.72
2023-01-30T12:46:08.353Z,7.79
2023-01-30T12:47:08.290Z,7.80
2023-01-30T12:48:08.268Z,7.72
2023-01-30T12:49:11.566Z,7.77
2023-01-30T12:50:08.191Z,7.77
2023-01-30T12:51:08.164Z,7.80
2023-01-30T12:52:08.138Z,7.74
2023-01-30T12:53:08.108Z,7.71
2023-01-30T12:54:08.085Z,7.68
2023-01-30T12:55:08.053Z,7.72
2023-01-30T12:56:08.031Z,7.72
2023-01-30T12:57:08.006Z,7.69
2023-01-30T12:58:07.977Z,7.75
2023-01-30T12:59:07.950Z,7.75
2023-01-30T13:00:07.919Z,7.69
2023-01-30T13:01:07.950Z,7.77
2023-01-30T13:02:07.879Z,7.72
2023-01-30T13:03:07.904Z,7.75
2023-01-30T13:04:07.830Z,7.75
2023-01-30T13:05:07.791Z,7.75
2023-01-30T13:06:07.785Z,7.82
2023-01-30T13:07:07.734Z,7.77
2023-01-30T13:08:07.717Z,7.71
2023-01-30T13:09:07.690Z,7.82
2023-01-30T13:10:07.656Z,7.82
2023-01-30T13:11:07.629Z,7.90
2023-01-30T13:12:07.601Z,7.83
2023-01-30T13:13:07.577Z,7.85
2023-01-30T13:14:07.549Z,7.85
2023-01-30T13:15:07.516Z,7.97
2023-01-30T13:16:07.567Z,7.93
2023-01-30T13:17:07.481Z,8.00
2023-01-30T13:18:07.447Z,8.00
2023-01-30T13:19:07.410Z,7.98